createdAt,value
2022-09-06T00:00:22.163Z,0.00
2022-09-06T00:01:22.143Z,0.00
2022-09-06T00:02:22.178Z,0.00
2022-09-06T00:03:22.140Z,0.00
2022-09-06T00:04:22.145Z,0.00
2022-09-06T00:05:22.096Z,0.00
2022-09-06T00:06:22.089Z,0.00
2022-09-06T00:07:22.090Z,0.00
2022-09-06T00:08:22.066Z,0.00
2022-09-06T00:09:22.057Z,0.00
2022-09-06T00:10:22.047Z,0.00
2022-09-06T00:11:22.029Z,0.00
2022-09-06T00:12:22.059Z,0.00
2022-09-06T00:13:22.021Z,0.00
2022-09-06T00:14:22.008Z,0.00
2022-09-06T00:15:21.982Z,0.00
2022-09-06T00:16:22.053Z,0.00
2022-09-06T00:17:21.992Z,0.00
2022-09-06T00:18:22.016Z,0.00
2022-09-06T00:19:21.959Z,0.00
2022-09-06T00:20:21.952Z,0.00
2022-09-06T00:21:21.931Z,0.00
2022-09-06T00:22:21.948Z,0.00
2022-09-06T00:23:21.907Z,0.00
2022-09-06T00:24:21.897Z,0.00
2022-09-06T00:25:21.894Z,0.00
2022-09-06T00:26:21.907Z,0.00
2022-09-06T00:27:21.881Z,0.00
2022-09-06T00:28:21.962Z,0.00
2022-09-06T00:29:21.877Z,0.00
2022-09-06T00:30:21.847Z,0.00
2022-09-06T00:31:21.916Z,0.00
2022-09-06T00:32:21.827Z,0.00
2022-09-06T00:33:21.818Z,0.00
2022-09-06T00:34:21.806Z,0.00
2022-09-06T00:35:21.800Z,0.00
2022-09-06T00:36:21.807Z,0.00
2022-09-06T00:37:21.775Z,0.00
2022-09-06T00:38:21.773Z,0.00
2022-09-06T00:39:21.766Z,0.00
2022-09-06T00:40:21.756Z,0.00
2022-09-06T00:41:21.763Z,0.00
2022-09-06T00:42:21.749Z,0.00
2022-09-06T00:43:21.716Z,0.00
2022-09-06T00:44:21.700Z,0.00
2022-09-06T00:45:21.704Z,0.00
2022-09-06T00:46:21.736Z,0.00
2022-09-06T00:47:21.672Z,0.00
2022-09-06T00:48:21.669Z,0.00
2022-09-06T00:49:21.665Z,0.00
2022-09-06T00:50:21.652Z,0.00
2022-09-06T00:51:21.654Z,0.00
2022-09-06T00:52:21.617Z,0.00
2022-09-06T00:53:22.617Z,0.00
2022-09-06T00:54:21.608Z,0.00
2022-09-06T00:55:21.606Z,0.00
2022-09-06T00:56:21.635Z,0.00
2022-09-06T00:57:21.581Z,0.00
2022-09-06T00:58:21.571Z,0.00
2022-09-06T00:59:21.561Z,0.00
2022-09-06T01:00:21.552Z,0.00
2022-09-06T01:01:21.613Z,0.00
2022-09-06T01:02:21.656Z,0.00
2022-09-06T01:03:21.536Z,0.00
2022-09-06T01:04:21.515Z,0.00
2022-09-06T01:05:21.506Z,0.00
2022-09-06T01:06:21.509Z,0.00
2022-09-06T01:07:21.488Z,0.00
2022-09-06T01:08:21.519Z,0.00
2022-09-06T01:09:21.464Z,0.00
2022-09-06T01:10:21.459Z,0.00
2022-09-06T01:11:21.467Z,0.00
2022-09-06T01:12:21.472Z,0.00
2022-09-06T01:13:21.427Z,0.00
2022-09-06T01:14:21.411Z,0.00
2022-09-06T01:15:21.400Z,0.00
2022-09-06T01:16:21.410Z,0.00
2022-09-06T01:17:21.408Z,0.00
2022-09-06T01:18:21.406Z,0.00
2022-09-06T01:19:21.366Z,0.00
2022-09-06T01:20:21.357Z,0.00
2022-09-06T01:21:21.338Z,0.00
2022-09-06T01:22:21.357Z,0.00
2022-09-06T01:23:21.325Z,0.00
2022-09-06T01:24:21.333Z,0.00
2022-09-06T01:25:21.305Z,0.00
2022-09-06T01:26:21.287Z,0.00
2022-09-06T01:27:21.308Z,0.00
2022-09-06T01:28:21.323Z,0.00
2022-09-06T01:29:21.266Z,0.00
2022-09-06T01:30:21.276Z,0.00
2022-09-06T01:31:21.310Z,0.00
2022-09-06T01:32:21.238Z,0.00
2022-09-06T01:33:21.228Z,0.00
2022-09-06T01:34:21.240Z,0.00
2022-09-06T01:35:21.204Z,0.00
2022-09-06T01:36:21.217Z,0.00
2022-09-06T01:37:21.189Z,0.00
2022-09-06T01:38:21.226Z,0.00
2022-09-06T01:39:21.155Z,0.00
2022-09-06T01:40:21.153Z,0.00
2022-09-06T01:41:21.171Z,0.00
2022-09-06T01:42:21.147Z,0.00
2022-09-06T01:43:21.132Z,0.00
2022-09-06T01:44:21.121Z,0.00
2022-09-06T01:45:21.113Z,0.00
2022-09-06T01:46:21.153Z,0.00
2022-09-06T01:47:21.077Z,0.00
2022-09-06T01:48:21.187Z,0.00
2022-09-06T01:49:21.072Z,0.00
2022-09-06T01:50:21.074Z,0.00
2022-09-06T01:51:21.060Z,0.00
2022-09-06T01:52:21.038Z,0.00
2022-09-06T01:53:21.029Z,0.00
2022-09-06T01:54:21.020Z,0.00
2022-09-06T01:55:21.009Z,0.00
2022-09-06T01:56:21.029Z,0.00
2022-09-06T01:57:20.983Z,0.00
2022-09-06T01:58:21.039Z,0.00
2022-09-06T01:59:20.976Z,0.00
2022-09-06T02:00:20.957Z,0.00
2022-09-06T02:01:21.016Z,0.00
2022-09-06T02:02:20.978Z,0.00
2022-09-06T02:03:20.926Z,0.00
2022-09-06T02:04:20.921Z,0.00
2022-09-06T02:05:20.909Z,0.00
2022-09-06T02:06:20.915Z,0.00
2022-09-06T02:07:20.882Z,0.00
2022-09-06T02:08:20.894Z,0.00
2022-09-06T02:09:20.872Z,0.00
2022-09-06T02:10:20.871Z,0.00
2022-09-06T02:11:20.917Z,0.00
2022-09-06T02:12:20.837Z,0.00
2022-09-06T02:13:20.827Z,0.00
2022-09-06T02:14:20.828Z,0.00
2022-09-06T02:15:20.815Z,0.00
2022-09-06T02:16:20.892Z,0.00
2022-09-06T02:17:20.811Z,0.00
2022-09-06T02:18:20.771Z,0.00
2022-09-06T02:19:21.784Z,0.00
2022-09-06T02:20:20.760Z,0.00
2022-09-06T02:21:20.772Z,0.00
2022-09-06T02:22:20.745Z,0.00
2022-09-06T02:23:20.727Z,0.00
2022-09-06T02:24:20.721Z,0.00
2022-09-06T02:25:20.710Z,0.00
2022-09-06T02:26:20.726Z,0.00
2022-09-06T02:27:20.698Z,0.00
2022-09-06T02:28:20.769Z,0.00
2022-09-06T02:29:20.682Z,0.00
2022-09-06T02:30:20.661Z,0.00
2022-09-06T02:31:20.712Z,0.00
2022-09-06T02:32:20.652Z,0.00
2022-09-06T02:33:20.633Z,0.00
2022-09-06T02:34:20.630Z,0.00
2022-09-06T02:35:20.614Z,0.00
2022-09-06T02:36:20.625Z,0.00
2022-09-06T02:37:20.601Z,0.00
2022-09-06T02:38:20.676Z,0.00
2022-09-06T02:39:20.620Z,0.00
2022-09-06T02:40:20.568Z,0.00
2022-09-06T02:41:20.581Z,0.00
2022-09-06T02:42:20.656Z,0.00
2022-09-06T02:43:20.548Z,0.00
2022-09-06T02:44:20.552Z,0.00
2022-09-06T02:45:20.535Z,0.00
2022-09-06T02:46:20.605Z,0.00
2022-09-06T02:47:20.496Z,0.00
2022-09-06T02:48:20.571Z,0.00
2022-09-06T02:49:20.479Z,0.00
2022-09-06T02:50:21.487Z,0.00
2022-09-06T02:51:20.474Z,0.00
2022-09-06T02:52:20.452Z,0.00
2022-09-06T02:53:20.435Z,0.00
2022-09-06T02:54:20.423Z,0.00
2022-09-06T02:55:20.417Z,0.00
2022-09-06T02:56:20.410Z,0.00
2022-09-06T02:57:20.426Z,0.00
2022-09-06T02:58:20.461Z,0.00
2022-09-06T02:59:20.388Z,0.00
2022-09-06T03:00:20.390Z,0.00
2022-09-06T03:01:20.449Z,0.00
2022-09-06T03:02:20.469Z,0.00
2022-09-06T03:03:20.347Z,0.00
2022-09-06T03:04:20.351Z,0.00
2022-09-06T03:05:20.355Z,0.00
2022-09-06T03:06:20.315Z,0.00
2022-09-06T03:07:20.345Z,0.00
2022-09-06T03:08:20.332Z,0.00
2022-09-06T03:09:20.288Z,0.00
2022-09-06T03:10:20.276Z,0.00
2022-09-06T03:11:20.273Z,0.00
2022-09-06T03:12:20.271Z,0.00
2022-09-06T03:13:20.256Z,0.00
2022-09-06T03:14:20.253Z,0.00
2022-09-06T03:15:20.230Z,0.00
2022-09-06T03:16:20.267Z,0.00
2022-09-06T03:17:20.228Z,0.00
2022-09-06T03:18:20.209Z,0.00
2022-09-06T03:19:20.240Z,0.00
2022-09-06T03:20:20.177Z,0.00
2022-09-06T03:21:20.174Z,0.00
2022-09-06T03:22:20.222Z,0.00
2022-09-06T03:23:20.148Z,0.00
2022-09-06T03:24:20.143Z,0.00
2022-09-06T03:25:20.132Z,0.00
2022-09-06T03:26:20.116Z,0.00
2022-09-06T03:27:20.133Z,0.00
2022-09-06T03:28:20.106Z,0.00
2022-09-06T03:29:20.089Z,0.00
2022-09-06T03:30:20.070Z,0.00
2022-09-06T03:31:20.168Z,0.00
2022-09-06T03:32:20.076Z,0.00
2022-09-06T03:33:20.046Z,0.00
2022-09-06T03:34:20.045Z,0.00
2022-09-06T03:35:20.024Z,0.00
2022-09-06T03:36:20.012Z,0.00
2022-09-06T03:37:20.030Z,0.00
2022-09-06T03:38:20.039Z,0.00
2022-09-06T03:39:21.005Z,0.00
2022-09-06T03:40:19.974Z,0.00
2022-09-06T03:41:19.972Z,0.00
2022-09-06T03:42:19.976Z,0.00
2022-09-06T03:43:19.948Z,0.00
2022-09-06T03:44:19.943Z,0.00
2022-09-06T03:45:19.928Z,0.00
2022-09-06T03:46:19.974Z,0.00
2022-09-06T03:47:19.927Z,0.00
2022-09-06T03:48:19.899Z,0.00
2022-09-06T03:49:19.895Z,0.00
2022-09-06T03:50:19.869Z,0.00
2022-09-06T03:51:19.905Z,0.00
2022-09-06T03:52:19.878Z,0.00
2022-09-06T03:53:19.840Z,0.00
2022-09-06T03:54:19.824Z,0.00
2022-09-06T03:55:19.824Z,0.00
2022-09-06T03:56:19.813Z,0.00
2022-09-06T03:57:19.852Z,0.00
2022-09-06T03:58:19.789Z,0.00
2022-09-06T03:59:19.827Z,0.00
2022-09-06T04:00:19.782Z,0.00
2022-09-06T04:01:19.827Z,0.00
2022-09-06T04:02:19.822Z,0.00
2022-09-06T04:03:19.753Z,0.00
2022-09-06T04:04:19.743Z,0.00
2022-09-06T04:05:19.732Z,0.00
2022-09-06T04:06:19.723Z,0.00
2022-09-06T04:07:19.732Z,0.00
2022-09-06T04:08:19.700Z,0.00
2022-09-06T04:09:19.692Z,0.00
2022-09-06T04:10:19.690Z,0.00
2022-09-06T04:11:19.676Z,0.00
2022-09-06T04:12:19.689Z,4.00
2022-09-06T04:13:19.651Z,4.00
2022-09-06T04:14:19.635Z,0.00
2022-09-06T04:15:19.636Z,0.00
2022-09-06T04:16:19.676Z,4.00
2022-09-06T04:17:19.636Z,4.00
2022-09-06T04:18:19.602Z,0.00
2022-09-06T04:19:19.599Z,4.00
2022-09-06T04:20:19.577Z,4.00
2022-09-06T04:21:19.575Z,4.00
2022-09-06T04:22:19.609Z,4.00
2022-09-06T04:23:19.555Z,8.00
2022-09-06T04:24:19.563Z,8.00
2022-09-06T04:25:19.536Z,8.00
2022-09-06T04:26:19.525Z,8.00
2022-09-06T04:27:19.529Z,12.00
2022-09-06T04:28:19.506Z,16.00
2022-09-06T04:29:19.493Z,16.00
2022-09-06T04:30:19.484Z,20.00
2022-09-06T04:31:19.527Z,24.00
2022-09-06T04:32:19.497Z,24.00
2022-09-06T04:33:19.484Z,28.00
2022-09-06T04:34:19.444Z,32.00
2022-09-06T04:35:19.434Z,32.00
2022-09-06T04:36:19.424Z,40.00
2022-09-06T04:37:19.433Z,44.00
2022-09-06T04:38:19.405Z,48.00
2022-09-06T04:39:19.394Z,56.00
2022-09-06T04:40:19.399Z,56.00
2022-09-06T04:41:19.374Z,60.00
2022-09-06T04:42:19.377Z,60.00
2022-09-06T04:43:19.347Z,68.00
2022-09-06T04:44:19.344Z,80.00
2022-09-06T04:45:19.331Z,96.00
2022-09-06T04:46:19.405Z,108.00
2022-09-06T04:47:19.328Z,124.00
2022-09-06T04:48:19.313Z,136.00
2022-09-06T04:49:19.303Z,144.00
2022-09-06T04:50:19.284Z,156.00
2022-09-06T04:51:19.259Z,168.00
2022-09-06T04:52:19.283Z,176.00
2022-09-06T04:53:19.248Z,192.00
2022-09-06T04:54:19.260Z,208.00
2022-09-06T04:55:19.241Z,220.00
2022-09-06T04:56:19.219Z,236.00
2022-09-06T04:57:19.222Z,256.00
2022-09-06T04:58:19.199Z,276.00
2022-09-06T04:59:19.178Z,292.00
2022-09-06T05:00:19.185Z,312.00
2022-09-06T05:01:19.276Z,328.00
2022-09-06T05:02:19.214Z,348.00
2022-09-06T05:03:19.150Z,364.00
2022-09-06T05:04:19.136Z,380.00
2022-09-06T05:05:19.130Z,396.00
2022-09-06T05:06:19.124Z,408.00
2022-09-06T05:07:19.129Z,420.00
2022-09-06T05:08:19.098Z,432.00
2022-09-06T05:09:19.090Z,448.00
2022-09-06T05:10:19.088Z,460.00
2022-09-06T05:11:19.065Z,472.00
2022-09-06T05:12:19.077Z,484.00
2022-09-06T05:13:19.053Z,496.00
2022-09-06T05:14:19.054Z,508.00
2022-09-06T05:15:19.036Z,516.00
2022-09-06T05:16:19.080Z,520.00
2022-09-06T05:17:19.030Z,528.00
2022-09-06T05:18:19.005Z,536.00
2022-09-06T05:19:18.976Z,548.00
2022-09-06T05:20:18.980Z,568.00
2022-09-06T05:21:18.969Z,592.00
2022-09-06T05:22:18.975Z,624.00
2022-09-06T05:23:18.949Z,668.00
2022-09-06T05:24:18.934Z,720.00
2022-09-06T05:25:18.931Z,780.00
2022-09-06T05:26:18.919Z,840.00
2022-09-06T05:27:18.937Z,916.00
2022-09-06T05:28:18.901Z,992.00
2022-09-06T05:29:18.891Z,1072.00
2022-09-06T05:30:18.882Z,1160.00
2022-09-06T05:31:18.904Z,1244.00
2022-09-06T05:32:18.879Z,1332.00
2022-09-06T05:33:18.884Z,1428.00
2022-09-06T05:34:18.852Z,1536.00
2022-09-06T05:35:18.838Z,1652.00
2022-09-06T05:36:18.812Z,1780.00
2022-09-06T05:37:18.834Z,1916.00
2022-09-06T05:38:18.803Z,2052.00
2022-09-06T05:39:18.787Z,2188.00
2022-09-06T05:40:18.782Z,2320.00
2022-09-06T05:41:18.790Z,2440.00
2022-09-06T05:42:19.507Z,2536.00
2022-09-06T05:43:19.760Z,2612.00
2022-09-06T05:44:18.742Z,2660.00
2022-09-06T05:45:18.739Z,2692.00
2022-09-06T05:46:18.820Z,2724.00
2022-09-06T05:47:18.728Z,2744.00
2022-09-06T05:48:18.706Z,2756.00
2022-09-06T05:49:18.723Z,2752.00
2022-09-06T05:50:18.680Z,2728.00
2022-09-06T05:51:18.675Z,2684.00
2022-09-06T05:52:18.693Z,2620.00
2022-09-06T05:53:18.671Z,2548.00
2022-09-06T05:54:18.662Z,2472.00
2022-09-06T05:55:18.647Z,2412.00
2022-09-06T05:56:18.631Z,2376.00
2022-09-06T05:57:18.635Z,2292.00
2022-09-06T05:58:18.600Z,2256.00
2022-09-06T05:59:18.597Z,2264.00
2022-09-06T06:00:18.588Z,2316.00
2022-09-06T06:01:18.639Z,2400.00
2022-09-06T06:02:18.605Z,2548.00
2022-09-06T06:03:18.561Z,2792.00
2022-09-06T06:04:18.569Z,3116.00
2022-09-06T06:05:18.542Z,3456.00
2022-09-06T06:06:18.536Z,3804.00
2022-09-06T06:07:18.539Z,4124.00
2022-09-06T06:08:18.519Z,4412.00
2022-09-06T06:09:18.505Z,4668.00
2022-09-06T06:10:18.483Z,4900.00
2022-09-06T06:11:18.482Z,5064.00
2022-09-06T06:12:18.494Z,5112.00
2022-09-06T06:13:18.537Z,5116.00
2022-09-06T06:14:18.448Z,5080.00
2022-09-06T06:15:18.466Z,5060.00
2022-09-06T06:16:18.477Z,5044.00
2022-09-06T06:17:18.442Z,5040.00
2022-09-06T06:18:18.411Z,5016.00
2022-09-06T06:19:18.400Z,4928.00
2022-09-06T06:20:18.390Z,4832.00
2022-09-06T06:21:18.384Z,4720.00
2022-09-06T06:22:18.390Z,4624.00
2022-09-06T06:23:18.366Z,4536.00
2022-09-06T06:24:18.356Z,4440.00
2022-09-06T06:25:18.339Z,4412.00
2022-09-06T06:26:18.331Z,4372.00
2022-09-06T06:27:18.346Z,4760.00
2022-09-06T06:28:18.311Z,4824.00
2022-09-06T06:29:18.313Z,4616.00
2022-09-06T06:30:18.658Z,4132.00
2022-09-06T06:31:18.335Z,3808.00
2022-09-06T06:32:18.297Z,3804.00
2022-09-06T06:33:18.266Z,3832.00
2022-09-06T06:34:18.257Z,3872.00
2022-09-06T06:35:18.248Z,3896.00
2022-09-06T06:36:18.233Z,3896.00
2022-09-06T06:37:18.251Z,3892.00
2022-09-06T06:38:18.227Z,3876.00
2022-09-06T06:39:18.208Z,3884.00
2022-09-06T06:40:18.199Z,3936.00
2022-09-06T06:41:18.192Z,4036.00
2022-09-06T06:42:18.201Z,4140.00
2022-09-06T06:43:18.173Z,4248.00
2022-09-06T06:44:18.182Z,4368.00
2022-09-06T06:45:18.147Z,4496.00
2022-09-06T06:46:18.228Z,4640.00
2022-09-06T06:47:18.154Z,4788.00
2022-09-06T06:48:18.123Z,4948.00
2022-09-06T06:49:18.143Z,5160.00
2022-09-06T06:50:18.096Z,5424.00
2022-09-06T06:51:18.096Z,5740.00
2022-09-06T06:52:18.105Z,6044.00
2022-09-06T06:53:18.074Z,6276.00
2022-09-06T06:54:18.058Z,7476.00
2022-09-06T06:55:18.046Z,7856.00
2022-09-06T06:56:18.043Z,6892.00
2022-09-06T06:57:18.084Z,6780.00
2022-09-06T06:58:18.014Z,7020.00
2022-09-06T06:59:18.012Z,7204.00
2022-09-06T07:00:18.010Z,7080.00
2022-09-06T07:01:18.104Z,7160.00
2022-09-06T07:02:18.117Z,7228.00
2022-09-06T07:03:17.994Z,7264.00
2022-09-06T07:04:17.960Z,7272.00
2022-09-06T07:06:20.007Z,7176.00
2022-09-06T07:07:35.405Z,7076.00
2022-09-06T07:08:19.920Z,7012.00
2022-09-06T07:09:17.911Z,6944.00
2022-09-06T07:10:33.505Z,6888.00
2022-09-06T07:11:21.746Z,6844.00
2022-09-06T07:12:17.911Z,6808.00
2022-09-06T07:13:17.879Z,6788.00
2022-09-06T07:14:17.862Z,6808.00
2022-09-06T07:15:17.866Z,6840.00
2022-09-06T07:16:17.914Z,6884.00
2022-09-06T07:17:17.858Z,6968.00
2022-09-06T07:18:17.820Z,7072.00
2022-09-06T07:20:19.813Z,7524.00
2022-09-06T07:22:19.827Z,9312.00
2022-09-06T07:24:19.775Z,8172.00
2022-09-06T07:25:21.137Z,8208.00
2022-09-06T07:26:18.754Z,8260.00
2022-09-06T07:28:19.737Z,8620.00
2022-09-06T07:29:17.730Z,8320.00
2022-09-06T07:30:17.712Z,8164.00
2022-09-06T07:32:19.729Z,8064.00
2022-09-06T07:33:18.687Z,7928.00
2022-09-06T07:34:17.713Z,7816.00
2022-09-06T07:35:17.662Z,7676.00
2022-09-06T07:36:17.664Z,7544.00
2022-09-06T07:37:17.673Z,7424.00
2022-09-06T07:38:17.644Z,7308.00
2022-09-06T07:39:17.628Z,7220.00
2022-09-06T07:40:17.619Z,7136.00
2022-09-06T07:41:17.659Z,7060.00
2022-09-06T07:42:17.613Z,6992.00
2022-09-06T07:43:17.601Z,6936.00
2022-09-06T07:44:17.583Z,6900.00
2022-09-06T07:45:17.577Z,6872.00
2022-09-06T07:46:17.603Z,6844.00
2022-09-06T07:48:19.559Z,6880.00
2022-09-06T07:49:17.559Z,6884.00
2022-09-06T07:50:48.687Z,6896.00
2022-09-06T07:51:19.546Z,6904.00
2022-09-06T07:53:26.384Z,6904.00
2022-09-06T07:54:30.357Z,6912.00
2022-09-06T07:55:19.485Z,6952.00
2022-09-06T07:56:17.493Z,7016.00
2022-09-06T07:57:17.464Z,7124.00
2022-09-06T07:58:17.466Z,7260.00
2022-09-06T07:59:17.433Z,7412.00
2022-09-06T08:00:17.425Z,7576.00
2022-09-06T08:01:17.456Z,7756.00
2022-09-06T08:02:17.443Z,7944.00
2022-09-06T08:03:17.393Z,8332.00
2022-09-06T08:04:17.387Z,8364.00
2022-09-06T08:06:19.387Z,8696.00
2022-09-06T08:09:19.348Z,8456.00
2022-09-06T08:10:18.733Z,8356.00
2022-09-06T08:11:17.314Z,8300.00
2022-09-06T08:12:17.325Z,8224.00
2022-09-06T08:13:17.298Z,8132.00
2022-09-06T08:14:17.281Z,8048.00
2022-09-06T08:15:17.299Z,7996.00
2022-09-06T08:16:17.282Z,7992.00
2022-09-06T08:17:17.291Z,8080.00
2022-09-06T08:18:17.258Z,8388.00
2022-09-06T08:19:17.287Z,8124.00
2022-09-06T08:20:17.230Z,8108.00
2022-09-06T08:21:17.223Z,8048.00
2022-09-06T08:22:17.233Z,7988.00
2022-09-06T08:23:17.200Z,7968.00
2022-09-06T08:24:17.209Z,7980.00
2022-09-06T08:25:17.191Z,7988.00
2022-09-06T08:26:17.178Z,7972.00
2022-09-06T08:27:17.181Z,7968.00
2022-09-06T08:28:17.150Z,8016.00
2022-09-06T08:29:17.139Z,8128.00
2022-09-06T08:30:17.128Z,8244.00
2022-09-06T08:31:17.162Z,8392.00
2022-09-06T08:32:17.125Z,8584.00
2022-09-06T08:33:17.097Z,8616.00
2022-09-06T08:34:17.083Z,8716.00
2022-09-06T08:35:17.081Z,8848.00
2022-09-06T08:36:17.082Z,9000.00
2022-09-06T08:37:17.079Z,9124.00
2022-09-06T08:38:17.049Z,9268.00
2022-09-06T08:39:17.038Z,9352.00
2022-09-06T08:40:17.023Z,9384.00
2022-09-06T08:41:17.014Z,9408.00
2022-09-06T08:42:17.024Z,9432.00
2022-09-06T08:43:16.998Z,9500.00
2022-09-06T08:45:18.980Z,9676.00
2022-09-06T08:46:17.024Z,9828.00
2022-09-06T08:47:16.968Z,10048.00
2022-09-06T08:48:16.953Z,10320.00
2022-09-06T08:49:16.951Z,10824.00
2022-09-06T08:50:16.934Z,10996.00
2022-09-06T08:51:16.950Z,11464.00
2022-09-06T08:52:16.932Z,11400.00
2022-09-06T08:53:17.912Z,11536.00
2022-09-06T08:54:17.901Z,11716.00
2022-09-06T08:55:16.887Z,11908.00
2022-09-06T08:56:16.909Z,12076.00
2022-09-06T08:57:16.868Z,12236.00
2022-09-06T08:58:16.853Z,12268.00
2022-09-06T08:59:16.849Z,12128.00
2022-09-06T09:00:16.855Z,11952.00
2022-09-06T09:01:16.917Z,11872.00
2022-09-06T09:02:16.879Z,11928.00
2022-09-06T09:03:17.229Z,12000.00
2022-09-06T09:04:17.814Z,11876.00
2022-09-06T09:05:16.793Z,11864.00
2022-09-06T09:06:16.803Z,11824.00
2022-09-06T09:07:16.767Z,11768.00
2022-09-06T09:08:16.757Z,11772.00
2022-09-06T09:09:16.741Z,11796.00
2022-09-06T09:10:16.785Z,11816.00
2022-09-06T09:11:16.755Z,11808.00
2022-09-06T09:12:16.715Z,11768.00
2022-09-06T09:13:16.714Z,11716.00
2022-09-06T09:14:16.702Z,11656.00
2022-09-06T09:15:16.700Z,11580.00
2022-09-06T09:16:16.746Z,11520.00
2022-09-06T09:17:16.695Z,11428.00
2022-09-06T09:18:16.653Z,11380.00
2022-09-06T09:19:16.678Z,11372.00
2022-09-06T09:20:16.644Z,11336.00
2022-09-06T09:21:16.630Z,11240.00
2022-09-06T09:22:16.637Z,11108.00
2022-09-06T09:23:16.624Z,10936.00
2022-09-06T09:24:16.602Z,10780.00
2022-09-06T09:25:16.597Z,10664.00
2022-09-06T09:26:16.575Z,10568.00
2022-09-06T09:27:16.589Z,10444.00
2022-09-06T09:28:16.602Z,10328.00
2022-09-06T09:29:16.548Z,10332.00
2022-09-06T09:31:18.587Z,10880.00
2022-09-06T09:32:16.543Z,10864.00
2022-09-06T09:33:16.511Z,11236.00
2022-09-06T09:34:16.502Z,13088.00
2022-09-06T09:35:16.495Z,12964.00
2022-09-06T09:36:16.500Z,13012.00
2022-09-06T09:38:18.482Z,12484.00
2022-09-06T09:39:16.457Z,12064.00
2022-09-06T09:40:16.449Z,11628.00
2022-09-06T09:41:16.442Z,11224.00
2022-09-06T09:42:16.449Z,10900.00
2022-09-06T09:43:16.417Z,10668.00
2022-09-06T09:44:16.404Z,10504.00
2022-09-06T09:45:16.395Z,10360.00
2022-09-06T09:46:16.444Z,10236.00
2022-09-06T09:47:16.404Z,10116.00
2022-09-06T09:48:16.364Z,10008.00
2022-09-06T09:49:16.367Z,9896.00
2022-09-06T09:50:16.358Z,9816.00
2022-09-06T09:51:23.980Z,9744.00
2022-09-06T09:52:18.345Z,9672.00
2022-09-06T09:53:16.342Z,9596.00
2022-09-06T09:54:16.322Z,9528.00
2022-09-06T09:55:16.305Z,9472.00
2022-09-06T09:56:16.301Z,9408.00
2022-09-06T09:57:16.308Z,9352.00
2022-09-06T09:58:16.272Z,9300.00
2022-09-06T09:59:16.270Z,9264.00
2022-09-06T10:00:16.274Z,9228.00
2022-09-06T10:01:16.314Z,9192.00
2022-09-06T10:02:16.258Z,9176.00
2022-09-06T10:03:16.272Z,9168.00
2022-09-06T10:04:46.034Z,9144.00
2022-09-06T10:05:18.213Z,9128.00
2022-09-06T10:07:18.219Z,9108.00
2022-09-06T10:08:16.185Z,9084.00
2022-09-06T10:09:19.157Z,9072.00
2022-09-06T10:10:17.150Z,9064.00
2022-09-06T10:11:16.148Z,9040.00
2022-09-06T10:12:16.157Z,9032.00
2022-09-06T10:13:16.131Z,9012.00
2022-09-06T10:14:16.143Z,9008.00
2022-09-06T10:15:16.100Z,9012.00
2022-09-06T10:16:16.131Z,9004.00
2022-09-06T10:17:16.111Z,9000.00
2022-09-06T10:18:16.075Z,8992.00
2022-09-06T10:19:16.076Z,8988.00
2022-09-06T10:20:16.062Z,8988.00
2022-09-06T10:21:16.052Z,8988.00
2022-09-06T10:22:16.059Z,8984.00
2022-09-06T10:23:16.383Z,8984.00
2022-09-06T10:25:18.009Z,8984.00
2022-09-06T10:26:15.991Z,8980.00
2022-09-06T10:27:16.014Z,8972.00
2022-09-06T10:28:15.985Z,8972.00
2022-09-06T10:29:15.979Z,8984.00
2022-09-06T10:30:15.957Z,8980.00
2022-09-06T10:31:16.005Z,8996.00
2022-09-06T10:32:15.966Z,8980.00
2022-09-06T10:33:15.994Z,8972.00
2022-09-06T10:34:15.932Z,8968.00
2022-09-06T10:35:15.923Z,8972.00
2022-09-06T10:36:15.909Z,8972.00
2022-09-06T10:37:15.929Z,8952.00
2022-09-06T10:38:15.891Z,8948.00
2022-09-06T10:39:15.881Z,8968.00
2022-09-06T10:40:15.909Z,8984.00
2022-09-06T10:41:15.861Z,8996.00
2022-09-06T10:42:15.881Z,8988.00
2022-09-06T10:43:15.837Z,8984.00
2022-09-06T10:44:15.842Z,8996.00
2022-09-06T10:45:15.867Z,9000.00
2022-09-06T10:46:15.872Z,9008.00
2022-09-06T10:47:15.819Z,8980.00
2022-09-06T10:48:15.800Z,8992.00
2022-09-06T10:49:15.785Z,9000.00
2022-09-06T10:50:15.770Z,8988.00
2022-09-06T10:51:15.771Z,8976.00
2022-09-06T10:52:15.777Z,8944.00
2022-09-06T10:53:15.754Z,8908.00
2022-09-06T10:54:15.732Z,8888.00
2022-09-06T10:55:15.728Z,8916.00
2022-09-06T10:56:15.720Z,8980.00
2022-09-06T10:58:18.405Z,9012.00
2022-09-06T11:00:17.698Z,9036.00
2022-09-06T11:01:15.709Z,9020.00
2022-09-06T11:02:15.788Z,9012.00
2022-09-06T11:04:17.690Z,9084.00
2022-09-06T11:06:19.527Z,9108.00
2022-09-06T11:07:15.637Z,9100.00
2022-09-06T11:09:17.605Z,9100.00
2022-09-06T11:10:15.588Z,9120.00
2022-09-06T11:11:15.584Z,9148.00
2022-09-06T11:12:15.598Z,9160.00
2022-09-06T11:13:15.565Z,9176.00
2022-09-06T11:14:15.577Z,9212.00
2022-09-06T11:15:15.543Z,9188.00
2022-09-06T11:16:15.614Z,9176.00
2022-09-06T11:17:15.539Z,9192.00
2022-09-06T11:18:16.516Z,9180.00
2022-09-06T11:19:15.503Z,9120.00
2022-09-06T11:20:15.500Z,9124.00
2022-09-06T11:21:19.324Z,9144.00
2022-09-06T11:22:16.495Z,9172.00
2022-09-06T11:23:16.470Z,9196.00
2022-09-06T11:24:15.462Z,9216.00
2022-09-06T11:25:15.453Z,9220.00
2022-09-06T11:26:15.435Z,9232.00
2022-09-06T11:27:15.454Z,9204.00
2022-09-06T11:28:15.433Z,9224.00
2022-09-06T11:29:15.412Z,9240.00
2022-09-06T11:30:15.404Z,9268.00
2022-09-06T11:32:17.940Z,9296.00
2022-09-06T11:33:15.376Z,9292.00
2022-09-06T11:34:15.372Z,9276.00
2022-09-06T11:35:15.360Z,9296.00
2022-09-06T11:36:15.342Z,9312.00
2022-09-06T11:37:15.352Z,9332.00
2022-09-06T11:38:15.330Z,9372.00
2022-09-06T11:39:15.315Z,9388.00
2022-09-06T11:40:30.650Z,9396.00
2022-09-06T11:41:17.298Z,9388.00
2022-09-06T11:42:15.292Z,9372.00
2022-09-06T11:43:15.280Z,9384.00
2022-09-06T11:44:15.270Z,9392.00
2022-09-06T11:45:15.280Z,9428.00
2022-09-06T11:46:18.655Z,9452.00
2022-09-06T11:47:17.266Z,9472.00
2022-09-06T11:48:15.230Z,9500.00
2022-09-06T11:49:15.223Z,9524.00
2022-09-06T11:50:15.228Z,9532.00
2022-09-06T11:51:15.199Z,9540.00
2022-09-06T11:52:15.212Z,9548.00
2022-09-06T11:53:15.187Z,9532.00
2022-09-06T11:54:15.173Z,9516.00
2022-09-06T11:55:15.163Z,9512.00
2022-09-06T11:56:15.155Z,9524.00
2022-09-06T11:57:15.177Z,9548.00
2022-09-06T11:58:15.132Z,9572.00
2022-09-06T11:59:15.132Z,9608.00
2022-09-06T12:00:15.138Z,9616.00
2022-09-06T12:01:15.104Z,9596.00
2022-09-06T12:02:15.113Z,9564.00
2022-09-06T12:04:17.080Z,9588.00
2022-09-06T12:05:15.079Z,9644.00
2022-09-06T12:06:15.065Z,9684.00
2022-09-06T12:07:15.067Z,9760.00
2022-09-06T12:08:15.046Z,9824.00
2022-09-06T12:09:15.034Z,9888.00
2022-09-06T12:10:15.012Z,9932.00
2022-09-06T12:11:15.009Z,9928.00
2022-09-06T12:12:17.113Z,9880.00
2022-09-06T12:13:15.984Z,9836.00
2022-09-06T12:14:14.974Z,9832.00
2022-09-06T12:15:14.969Z,9848.00
2022-09-06T12:16:15.034Z,9856.00
2022-09-06T12:17:14.973Z,9880.00
2022-09-06T12:18:14.945Z,9844.00
2022-09-06T12:19:14.939Z,9832.00
2022-09-06T12:20:14.930Z,9888.00
2022-09-06T12:21:14.919Z,9936.00
2022-09-06T12:22:14.914Z,9992.00
2022-09-06T12:23:14.892Z,10016.00
2022-09-06T12:24:14.901Z,10000.00
2022-09-06T12:25:14.874Z,9992.00
2022-09-06T12:26:14.866Z,9968.00
2022-09-06T12:27:14.875Z,9916.00
2022-09-06T12:28:14.843Z,9856.00
2022-09-06T12:29:14.843Z,9816.00
2022-09-06T12:30:14.852Z,9804.00
2022-09-06T12:31:18.297Z,9820.00
2022-09-06T12:32:15.824Z,9864.00
2022-09-06T12:33:14.788Z,9872.00
2022-09-06T12:34:14.790Z,9872.00
2022-09-06T12:36:16.779Z,9872.00
2022-09-06T12:37:14.783Z,9868.00
2022-09-06T12:38:14.748Z,9908.00
2022-09-06T12:39:14.751Z,9944.00
2022-09-06T12:40:14.846Z,10036.00
2022-09-06T12:41:14.731Z,10084.00
2022-09-06T12:42:14.744Z,10112.00
2022-09-06T12:43:14.705Z,10144.00
2022-09-06T12:44:14.689Z,10204.00
2022-09-06T12:45:14.685Z,10424.00
2022-09-06T12:46:14.707Z,10524.00
2022-09-06T12:47:14.711Z,10652.00
2022-09-06T12:48:14.657Z,10784.00
2022-09-06T12:49:14.649Z,10792.00
2022-09-06T12:50:14.663Z,10928.00
2022-09-06T12:51:14.629Z,11112.00
2022-09-06T12:52:14.647Z,11208.00
2022-09-06T12:53:15.881Z,11020.00
2022-09-06T12:54:15.596Z,10652.00